Time;durP1;ratioP1;P1;durP2;ratioP2;P2;SDS_P1;SDS_P2;PMS_P1;PMS_P2;Temp;Humidity;BMP_temperature;BMP_pressure;BME280_temperature;BME280_humidity;BME280_pressure;Samples;Min_cycle;Max_cycle;Signal;HPM_P1;HPM_P2
2022/06/15 00:00:43;;;;;;;4.90;2.03;;;12.30;99.90;;;;;;5107435;28;20173;-80
2022/06/15 00:03:09;;;;;;;3.95;2.10;;;12.10;99.90;;;;;;5107099;28;20215;-80
2022/06/15 00:05:35;;;;;;;3.00;2.08;;;11.90;99.90;;;;;;5110743;28;20199;-80
2022/06/15 00:08:00;;;;;;;2.90;2.00;;;12.00;99.90;;;;;;5111186;28;20181;-80
2022/06/15 00:10:26;;;;;;;3.42;1.80;;;12.00;99.90;;;;;;5111510;28;20178;-80
2022/06/15 00:12:52;;;;;;;3.53;2.20;;;12.10;99.90;;;;;;5109323;28;20180;-80
2022/06/15 00:15:17;;;;;;;3.47;1.88;;;12.10;99.90;;;;;;5105500;28;20234;-80
2022/06/15 00:17:43;;;;;;;2.25;1.90;;;12.10;99.90;;;;;;5106492;28;20191;-80
2022/06/15 00:20:09;;;;;;;4.85;2.10;;;12.10;99.90;;;;;;5105506;28;20181;-80
2022/06/15 00:22:35;;;;;;;2.65;2.00;;;12.00;99.90;;;;;;5104950;28;20211;-80
2022/06/15 00:25:01;;;;;;;2.88;1.80;;;12.00;99.90;;;;;;5104812;28;20228;-80
2022/06/15 00:27:26;;;;;;;4.53;2.00;;;12.00;99.90;;;;;;5104853;28;20202;-80
2022/06/15 00:29:52;;;;;;;1.95;1.83;;;12.00;99.90;;;;;;5105221;28;20169;-80
2022/06/15 00:32:17;;;;;;;4.72;2.40;;;12.00;99.90;;;;;;5104607;28;20181;-80
2022/06/15 00:34:43;;;;;;;3.38;2.10;;;11.90;99.90;;;;;;5104633;28;20234;-80
2022/06/15 00:37:09;;;;;;;2.85;1.98;;;11.80;99.90;;;;;;5105418;28;20226;-80
2022/06/15 00:39:35;;;;;;;2.65;2.00;;;11.70;99.90;;;;;;5105137;28;20173;-80
2022/06/15 00:42:01;;;;;;;3.53;2.13;;;11.90;99.90;;;;;;5103439;28;20201;-80
2022/06/15 00:44:31;;;;;;;3.95;2.08;;;11.70;99.90;;;;;;5103648;28;20196;-80
2022/06/15 00:47:03;;;;;;;4.72;2.42;;;11.70;99.90;;;;;;5102790;28;20173;-80
2022/06/15 00:49:35;;;;;;;2.70;2.05;;;11.70;99.90;;;;;;5103172;28;20679;-80
2022/06/15 00:52:17;;;;;;;2.25;2.00;;;11.70;99.90;;;;;;5103619;28;20223;-80
2022/06/15 00:54:49;;;;;;;2.90;2.10;;;11.60;99.90;;;;;;5103401;28;20212;-80
2022/06/15 00:57:17;;;;;;;4.25;2.03;;;11.70;99.90;;;;;;5103935;28;20183;-80
2022/06/15 00:59:57;;;;;;;2.90;2.17;;;11.70;99.90;;;;;;5104917;28;20161;-80
2022/06/15 01:02:23;;;;;;;3.30;2.20;;;11.60;99.90;;;;;;5098402;28;20288;-77
2022/06/15 01:04:58;;;;;;;4.60;2.30;;;11.60;99.90;;;;;;5095430;28;20196;-77
2022/06/15 01:07:52;;;;;;;3.47;2.08;;;11.60;99.90;;;;;;5095145;28;20201;-77
2022/06/15 01:10:30;;;;;;;7.28;2.20;;;11.60;99.90;;;;;;5095238;28;20197;-77
2022/06/15 01:13:12;;;;;;;3.17;2.30;;;11.50;99.90;;;;;;5096575;28;20214;-77
2022/06/15 01:15:59;;;;;;;2.15;1.95;;;11.40;99.90;;;;;;5094596;28;20219;-78
2022/06/15 01:18:45;;;;;;;3.33;2.20;;;11.40;99.90;;;;;;5096848;28;20200;-79
2022/06/15 01:21:34;;;;;;;5.00;2.67;;;11.30;99.90;;;;;;5117227;28;20184;-79
2022/06/15 01:24:37;;;;;;;4.85;1.92;;;11.30;99.90;;;;;;5099442;28;20205;-79
2022/06/15 01:27:22;;;;;;;3.58;2.00;;;11.30;99.90;;;;;;5100864;28;20169;-79
2022/06/15 01:30:11;;;;;;;2.28;1.90;;;11.20;99.90;;;;;;5100872;28;20509;-79
2022/06/15 01:32:42;;;;;;;4.93;2.40;;;11.20;99.90;;;;;;5099836;28;20173;-79
2022/06/15 01:35:24;;;;;;;4.28;2.22;;;11.10;99.90;;;;;;5099836;28;20246;-79
2022/06/15 01:38:03;;;;;;;3.53;2.35;;;11.10;99.90;;;;;;5099008;28;20217;-79
2022/06/15 01:40:40;;;;;;;3.30;2.50;;;11.10;99.90;;;;;;5098548;28;20632;-79
2022/06/15 01:43:17;;;;;;;3.08;2.15;;;10.90;99.90;;;;;;5099891;28;20188;-79
2022/06/15 01:45:45;;;;;;;4.25;2.17;;;10.90;99.90;;;;;;5099606;28;20196;-79
2022/06/15 01:48:12;;;;;;;2.50;2.30;;;10.90;99.90;;;;;;5098223;28;20173;-79
2022/06/15 01:50:44;;;;;;;6.55;2.50;;;10.90;99.90;;;;;;5099319;28;20192;-79
2022/06/15 01:53:25;;;;;;;4.00;2.28;;;10.90;99.90;;;;;;5096539;28;20201;-78
2022/06/15 01:56:13;;;;;;;5.45;2.35;;;10.90;99.90;;;;;;5094610;28;20207;-78
2022/06/15 01:58:42;;;;;;;7.60;2.50;;;10.80;99.90;;;;;;5095618;28;20161;-78
2022/06/15 02:01:17;;;;;;;5.45;2.22;;;10.70;99.90;;;;;;5094370;28;20205;-80
2022/06/15 02:04:07;;;;;;;4.75;2.08;;;10.80;99.90;;;;;;5099586;28;20255;-80
2022/06/15 02:06:46;;;;;;;2.13;2.00;;;10.80;99.90;;;;;;5099313;28;20672;-80
2022/06/15 02:09:20;;;;;;;3.33;2.20;;;10.80;99.90;;;;;;5100109;28;20236;-80
2022/06/15 02:11:45;;;;;;;3.45;2.20;;;10.80;99.90;;;;;;5100009;28;20263;-80
2022/06/15 02:14:54;;;;;;;4.40;2.40;;;10.70;99.90;;;;;;5100698;28;20204;-80
2022/06/15 02:17:23;;;;;;;2.90;2.20;;;10.70;99.90;;;;;;5110504;28;20223;-80
2022/06/15 02:19:53;;;;;;;3.03;1.92;;;10.70;99.90;;;;;;5099068;28;20173;-80
2022/06/15 02:22:23;;;;;;;3.05;2.17;;;10.70;99.90;;;;;;5099517;28;20196;-80
2022/06/15 02:24:52;;;;;;;4.63;2.30;;;10.80;99.90;;;;;;5098697;28;20196;-80
2022/06/15 02:27:21;;;;;;;4.20;2.42;;;10.80;99.90;;;;;;5099253;28;20199;-80
2022/06/15 02:29:50;;;;;;;2.33;2.13;;;10.70;99.90;;;;;;5098046;28;20177;-80
2022/06/15 02:32:17;;;;;;;3.45;2.10;;;10.70;99.90;;;;;;5098319;28;20258;-80
2022/06/15 02:34:43;;;;;;;2.30;1.83;;;10.70;99.90;;;;;;5098482;28;20287;-80
2022/06/15 02:37:10;;;;;;;5.68;2.10;;;10.70;99.90;;;;;;5097984;28;20224;-80
2022/06/15 02:39:36;;;;;;;3.35;2.38;;;10.60;99.90;;;;;;5098227;28;20192;-80
2022/06/15 02:42:40;;;;;;;4.32;2.47;;;10.60;99.90;;;;;;5097870;28;20196;-80
2022/06/15 02:45:10;;;;;;;3.30;2.15;;;10.60;99.90;;;;;;5115370;28;20189;-80
2022/06/15 02:47:40;;;;;;;3.45;2.17;;;10.60;99.90;;;;;;5097651;28;20190;-80
2022/06/15 02:50:08;;;;;;;2.90;2.10;;;10.60;99.90;;;;;;5098950;28;20191;-80
2022/06/15 02:52:45;;;;;;;3.20;2.40;;;10.50;99.90;;;;;;5097373;28;20226;-80
2022/06/15 02:55:11;;;;;;;3.25;2.22;;;10.40;99.90;;;;;;5099266;28;20196;-80
2022/06/15 02:57:46;;;;;;;7.55;2.45;;;10.50;99.90;;;;;;5099103;28;20219;-80
2022/06/15 03:00:13;;;;;;;5.32;2.45;;;10.40;99.90;;;;;;5097065;28;20176;-80
2022/06/15 03:02:38;;;;;;;3.40;2.42;;;10.40;99.90;;;;;;5097240;28;20204;-80
2022/06/15 03:05:04;;;;;;;3.45;2.60;;;10.30;99.90;;;;;;5096587;28;20207;-79
2022/06/15 03:07:30;;;;;;;5.82;2.13;;;10.30;99.90;;;;;;5097128;28;20180;-80
2022/06/15 03:09:55;;;;;;;2.63;2.25;;;10.20;99.90;;;;;;5098451;28;20260;-80
2022/06/15 03:12:21;;;;;;;4.57;2.55;;;10.20;99.90;;;;;;5096405;28;20226;-80
2022/06/15 03:14:47;;;;;;;5.03;2.25;;;10.00;99.90;;;;;;5096634;28;20205;-80
2022/06/15 03:17:13;;;;;;;7.57;2.60;;;10.10;99.90;;;;;;5096849;28;20169;-80
2022/06/15 03:19:38;;;;;;;5.00;2.55;;;10.30;99.90;;;;;;5096391;28;20179;-80
2022/06/15 03:22:04;;;;;;;3.47;2.38;;;10.30;99.90;;;;;;5096634;28;20208;-80
2022/06/15 03:24:29;;;;;;;7.90;2.42;;;10.30;99.90;;;;;;5096212;28;20173;-80
2022/06/15 03:26:55;;;;;;;4.10;2.50;;;10.30;99.90;;;;;;5095772;28;20177;-80
2022/06/15 03:29:21;;;;;;;3.75;2.50;;;10.40;99.90;;;;;;5098102;28;20251;-80
2022/06/15 03:31:46;;;;;;;4.13;2.15;;;10.40;99.90;;;;;;5096422;28;20179;-80
2022/06/15 03:34:12;;;;;;;4.85;2.33;;;10.50;99.90;;;;;;5096640;28;20229;-80
2022/06/15 03:36:37;;;;;;;3.05;2.40;;;10.40;99.90;;;;;;5095924;28;20204;-79
2022/06/15 03:39:03;;;;;;;4.88;2.60;;;10.40;99.90;;;;;;5096062;28;20177;-80
2022/06/15 03:41:29;;;;;;;2.35;2.15;;;10.40;99.90;;;;;;5096668;28;20268;-80
2022/06/15 03:43:55;;;;;;;4.88;2.30;;;10.50;99.90;;;;;;5096078;28;20208;-80
2022/06/15 03:46:23;;;;;;;4.10;2.35;;;10.50;99.90;;;;;;5095611;28;20275;-80
2022/06/15 03:48:48;;;;;;;6.20;2.45;;;10.60;99.90;;;;;;5095541;28;20177;-80
2022/06/15 03:51:14;;;;;;;5.45;2.53;;;10.50;99.90;;;;;;5095450;28;20378;-80
2022/06/15 03:53:40;;;;;;;3.85;2.20;;;10.40;99.90;;;;;;5095268;28;20188;-80
2022/06/15 03:56:06;;;;;;;2.58;2.17;;;10.60;99.90;;;;;;5095290;28;20204;-80
2022/06/15 03:58:31;;;;;;;2.75;2.15;;;10.60;99.90;;;;;;5095190;28;20192;-80
2022/06/15 04:00:57;;;;;;;7.88;2.85;;;10.60;99.90;;;;;;5095397;28;20183;-80
2022/06/15 04:03:23;;;;;;;7.40;2.58;;;10.70;99.90;;;;;;5094960;28;20551;-80
2022/06/15 04:05:53;;;;;;;13.18;2.40;;;10.80;99.90;;;;;;5095651;28;20189;-80
2022/06/15 04:08:34;;;;;;;12.57;2.75;;;10.80;99.90;;;;;;5095225;28;20176;-80
2022/06/15 04:11:01;;;;;;;4.68;2.45;;;10.80;99.90;;;;;;5095870;28;20204;-80
2022/06/15 04:13:27;;;;;;;6.00;2.28;;;10.90;99.90;;;;;;5094993;28;20180;-80
2022/06/15 04:15:52;;;;;;;14.60;3.03;;;10.90;99.90;;;;;;5095438;28;20565;-80
2022/06/15 04:18:18;;;;;;;10.55;2.70;;;10.90;99.90;;;;;;5095202;28;20229;-80
2022/06/15 04:20:43;;;;;;;6.68;2.40;;;10.90;99.90;;;;;;5095032;28;20184;-80
2022/06/15 04:23:12;;;;;;;6.18;2.65;;;10.90;99.90;;;;;;5094291;28;20690;-80
2022/06/15 04:25:48;;;;;;;8.02;2.47;;;11.00;99.90;;;;;;5095158;28;20193;-80
2022/06/15 04:28:15;;;;;;;2.78;2.40;;;11.10;99.90;;;;;;5095287;28;20176;-85
2022/06/15 04:30:41;;;;;;;2.65;2.33;;;11.30;99.90;;;;;;5094852;28;20177;-81
2022/06/15 04:33:08;;;;;;;4.93;2.30;;;11.40;99.90;;;;;;5096749;28;20692;-81
2022/06/15 04:35:33;;;;;;;4.18;2.47;;;11.60;99.90;;;;;;5097619;28;20679;-81
2022/06/15 04:37:59;;;;;;;4.10;2.38;;;11.70;99.90;;;;;;5095716;28;20218;-81
2022/06/15 04:40:25;;;;;;;3.95;2.58;;;11.70;99.90;;;;;;5095200;28;20181;-82
2022/06/15 04:42:50;;;;;;;6.90;2.45;;;11.90;99.90;;;;;;5096346;28;20227;-82
2022/06/15 04:45:17;;;;;;;4.28;2.40;;;12.00;99.90;;;;;;5095021;28;20276;-80
2022/06/15 04:47:43;;;;;;;3.88;2.53;;;12.20;99.90;;;;;;5094899;28;20209;-82
2022/06/15 04:50:13;;;;;;;6.63;2.47;;;12.30;99.90;;;;;;5096844;28;20174;-81
2022/06/15 04:52:43;;;;;;;16.23;3.30;;;12.40;99.90;;;;;;5097009;28;20181;-80
2022/06/15 04:55:11;;;;;;;4.40;2.67;;;12.70;99.90;;;;;;5098798;28;20200;-80
2022/06/15 04:57:37;;;;;;;8.52;3.00;;;12.80;99.90;;;;;;5098579;28;20272;-80
2022/06/15 05:00:08;;;;;;;8.35;2.50;;;12.90;99.90;;;;;;5098455;28;20647;-80
2022/06/15 05:02:34;;;;;;;8.63;2.67;;;13.10;99.90;;;;;;5098790;28;20208;-80
2022/06/15 05:05:00;;;;;;;8.85;2.95;;;13.30;99.90;;;;;;5100349;28;20185;-82
2022/06/15 05:07:26;;;;;;;14.30;3.55;;;13.40;99.90;;;;;;5098417;28;20177;-81
2022/06/15 05:09:52;;;;;;;8.02;2.65;;;13.50;99.90;;;;;;5099124;28;20584;-82
2022/06/15 05:12:19;;;;;;;10.13;3.42;;;13.60;99.90;;;;;;5098460;28;20207;-82
2022/06/15 05:14:47;;;;;;;5.03;2.45;;;13.70;99.90;;;;;;5098207;28;20680;-80
2022/06/15 05:17:20;;;;;;;7.05;2.60;;;13.90;99.90;;;;;;5098612;28;20181;-81
2022/06/15 05:19:57;;;;;;;5.57;2.42;;;13.90;99.90;;;;;;5098161;28;20533;-80
2022/06/15 05:22:22;;;;;;;14.45;3.33;;;14.10;99.90;;;;;;5098233;28;20197;-80
2022/06/15 05:24:48;;;;;;;12.27;3.50;;;14.20;99.90;;;;;;5099115;28;20203;-81
2022/06/15 05:27:13;;;;;;;14.38;3.10;;;14.30;99.90;;;;;;5097660;28;20640;-81
2022/06/15 05:29:39;;;;;;;7.97;3.15;;;14.40;99.90;;;;;;5097225;28;20176;-81
2022/06/15 05:32:06;;;;;;;10.65;2.70;;;14.60;99.90;;;;;;5097017;28;20230;-81
2022/06/15 05:34:32;;;;;;;13.88;2.35;;;14.70;99.90;;;;;;5096947;28;20181;-81
2022/06/15 05:36:57;;;;;;;4.88;2.70;;;14.80;99.90;;;;;;5097128;28;20192;-81
2022/06/15 05:39:23;;;;;;;8.27;2.53;;;14.90;99.90;;;;;;5097636;28;20619;-78
2022/06/15 05:41:50;;;;;;;10.90;2.72;;;15.10;99.90;;;;;;5095228;28;20677;-78
2022/06/15 05:44:22;;;;;;;10.25;2.70;;;15.20;99.90;;;;;;5095153;28;20181;-79
2022/06/15 05:50:12;;;;;;;11.05;2.60;;;15.40;99.90;;;;;;5095817;28;20246;-78
2022/06/15 05:52:38;;;;;;;8.55;2.60;;;15.60;99.90;;;;;;5094308;28;20249;-78
2022/06/15 05:55:21;;;;;;;7.55;2.40;;;15.80;99.90;;;;;;5095042;28;20659;-79
2022/06/15 05:57:46;;;;;;;8.27;2.70;;;16.00;99.90;;;;;;5094179;28;20202;-79
2022/06/15 06:00:13;;;;;;;5.40;2.25;;;16.20;99.90;;;;;;5094392;28;20176;-79
2022/06/15 06:02:40;;;;;;;8.77;2.67;;;16.40;99.90;;;;;;5094294;28;20204;-79
2022/06/15 06:05:06;;;;;;;9.45;2.20;;;16.70;99.90;;;;;;5095297;28;20284;-78
2022/06/15 06:07:32;;;;;;;6.10;1.95;;;16.90;99.70;;;;;;5095246;28;20264;-79
2022/06/15 06:10:16;;;;;;;5.63;2.20;;;17.20;96.00;;;;;;5094202;28;20196;-79
2022/06/15 06:12:42;;;;;;;8.15;2.40;;;17.50;93.00;;;;;;5097663;28;20253;-78
2022/06/15 06:15:08;;;;;;;3.92;2.03;;;17.60;90.70;;;;;;5117465;28;20667;-81
2022/06/15 06:17:34;;;;;;;4.82;2.20;;;18.00;88.80;;;;;;5116726;28;20176;-79
2022/06/15 06:20:00;;;;;;;7.55;2.10;;;18.80;86.10;;;;;;5114440;28;20183;-79
2022/06/15 06:22:43;;;;;;;9.18;2.08;;;19.70;80.60;;;;;;5114958;28;20225;-79
2022/06/15 06:25:10;;;;;;;12.35;2.50;;;20.60;75.40;;;;;;5114157;28;20196;-79
2022/06/15 06:27:35;;;;;;;11.32;2.67;;;21.50;70.50;;;;;;5114719;28;20584;-78
2022/06/15 06:30:02;;;;;;;5.88;2.38;;;22.00;66.10;;;;;;5115509;28;20320;-79
2022/06/15 06:32:32;;;;;;;11.35;2.30;;;22.80;62.60;;;;;;5117655;28;20233;-81
2022/06/15 06:34:58;;;;;;;5.10;2.50;;;23.20;60.00;;;;;;5119555;28;20212;-79
2022/06/15 06:37:40;;;;;;;7.60;2.10;;;23.50;57.80;;;;;;5115732;27;20199;-79
2022/06/15 06:40:14;;;;;;;7.75;2.00;;;23.20;58.80;;;;;;5115976;28;20188;-82
2022/06/15 06:42:40;;;;;;;3.42;1.83;;;23.20;59.00;;;;;;5115811;28;20203;-79
2022/06/15 06:45:07;;;;;;;6.93;2.33;;;23.30;57.30;;;;;;5116589;28;20209;-82
2022/06/15 06:47:37;;;;;;;5.97;2.00;;;23.80;57.70;;;;;;5117293;28;20207;-82
2022/06/15 06:50:03;;;;;;;6.45;2.05;;;22.60;57.50;;;;;;5119199;28;20532;-83
2022/06/15 06:52:28;;;;;;;5.78;2.20;;;22.30;59.70;;;;;;5118869;28;20266;-82
2022/06/15 06:54:54;;;;;;;4.65;2.17;;;22.40;60.90;;;;;;5118575;28;20213;-81
2022/06/15 06:57:45;;;;;;;4.20;2.20;;;22.50;60.30;;;;;;5115925;28;20179;-81
2022/06/15 07:00:14;;;;;;;3.55;2.00;;;22.40;60.70;;;;;;5114236;28;20181;-79
2022/06/15 07:02:40;;;;;;;16.90;3.10;;;21.70;60.70;;;;;;5113396;28;20212;-79
2022/06/15 07:05:06;;;;;;;4.72;2.30;;;21.30;64.40;;;;;;5113393;28;20253;-79
2022/06/15 07:07:34;;;;;;;6.13;1.92;;;21.20;66.40;;;;;;5113758;28;20700;-83
2022/06/15 07:10:00;;;;;;;4.30;2.30;;;20.90;66.80;;;;;;5114292;28;20191;-83
2022/06/15 07:12:26;;;;;;;5.82;2.17;;;20.80;67.20;;;;;;5114823;28;20176;-82
2022/06/15 07:14:52;;;;;;;3.47;2.13;;;20.70;68.80;;;;;;5118346;28;20543;-83
2022/06/15 07:17:18;;;;;;;8.15;2.47;;;20.70;68.70;;;;;;5119416;28;20160;-82
2022/06/15 07:19:44;;;;;;;9.20;2.60;;;20.70;68.70;;;;;;5118885;28;20657;-85
2022/06/15 07:22:10;;;;;;;8.25;2.72;;;20.50;69.30;;;;;;5116547;28;20183;-82
2022/06/15 07:24:36;;;;;;;5.22;2.45;;;20.50;69.90;;;;;;5116877;28;20196;-82
2022/06/15 07:27:01;;;;;;;3.25;2.60;;;20.50;69.10;;;;;;5116424;28;20177;-82
2022/06/15 07:29:32;;;;;;;4.43;2.28;;;20.60;69.20;;;;;;5118203;28;20179;-82
2022/06/15 07:31:58;;;;;;;11.30;4.00;;;20.20;70.00;;;;;;5115247;28;20176;-79
2022/06/15 07:34:25;;;;;;;12.25;3.42;;;20.50;72.40;;;;;;5115460;28;20228;-83
2022/06/15 07:36:53;;;;;;;7.65;2.67;;;20.70;69.90;;;;;;5113448;28;20204;-79
2022/06/15 07:39:21;;;;;;;24.77;4.97;;;20.80;69.20;;;;;;5112899;28;20190;-83
2022/06/15 07:42:11;;;;;;;16.02;3.92;;;20.90;70.60;;;;;;5114237;28;20173;-79
2022/06/15 07:44:52;;;;;;;45.03;8.13;;;21.20;70.50;;;;;;5114041;28;20210;-79
2022/06/15 07:50:02;;;;;;;13.50;3.70;;;21.40;69.90;;;;;;5115177;28;20650;-79
2022/06/15 07:52:36;;;;;;;5.70;3.17;;;21.60;69.10;;;;;;5113367;28;20177;-79
2022/06/15 07:55:28;;;;;;;9.00;3.10;;;21.70;69.30;;;;;;5113997;28;20286;-79
2022/06/15 07:57:54;;;;;;;8.45;3.08;;;21.80;67.50;;;;;;5113899;28;20164;-82
2022/06/15 08:00:21;;;;;;;4.55;2.80;;;21.70;64.60;;;;;;5113132;28;20176;-79
2022/06/15 08:02:48;;;;;;;7.55;3.15;;;21.70;67.30;;;;;;5113923;28;20210;-79
2022/06/15 08:05:48;;;;;;;10.75;3.17;;;21.90;64.90;;;;;;5114040;28;20199;-79
2022/06/15 08:08:20;;;;;;;7.93;3.00;;;21.70;64.40;;;;;;5115210;28;20587;-79
2022/06/15 08:11:00;;;;;;;13.32;3.10;;;21.80;64.70;;;;;;5113583;28;20184;-80
2022/06/15 08:13:26;;;;;;;12.93;3.20;;;22.10;67.30;;;;;;5113999;28;20198;-79
2022/06/15 08:15:52;;;;;;;5.88;3.25;;;22.30;67.80;;;;;;5113994;28;20193;-79
2022/06/15 08:18:23;;;;;;;7.25;2.97;;;22.40;64.80;;;;;;5113946;28;20545;-79
2022/06/15 08:20:56;;;;;;;14.90;4.18;;;22.50;64.90;;;;;;5112483;28;20168;-79
2022/06/15 08:23:25;;;;;;;22.35;5.35;;;22.50;65.10;;;;;;5111005;28;20196;-80
2022/06/15 08:25:55;;;;;;;26.30;4.95;;;22.50;62.70;;;;;;5112608;28;20195;-79
2022/06/15 08:28:23;;;;;;;9.65;3.50;;;22.70;62.50;;;;;;5117637;28;20200;-79
2022/06/15 08:30:50;;;;;;;10.95;4.35;;;22.70;61.90;;;;;;5116764;28;20207;-79
2022/06/15 08:33:15;;;;;;;274.20;28.58;;;22.80;62.50;;;;;;5117149;28;20176;-79
2022/06/15 08:35:41;;;;;;;67.38;9.80;;;22.90;62.30;;;;;;5117367;28;20615;-79
2022/06/15 08:38:11;;;;;;;13.50;3.58;;;23.00;62.40;;;;;;5116992;28;20280;-79
2022/06/15 08:40:51;;;;;;;13.65;3.72;;;23.10;61.20;;;;;;5117547;28;20591;-79
2022/06/15 08:43:33;;;;;;;12.13;5.00;;;23.20;61.90;;;;;;5117382;28;20188;-79
2022/06/15 08:46:10;;;;;;;5.88;3.25;;;23.30;62.00;;;;;;5116816;28;20219;-79
2022/06/15 08:48:54;;;;;;;7.00;3.30;;;23.40;60.60;;;;;;5116698;28;20160;-79
2022/06/15 08:51:30;;;;;;;6.07;2.85;;;23.50;58.40;;;;;;5117985;28;20243;-79
2022/06/15 08:54:03;;;;;;;6.70;3.20;;;23.60;58.70;;;;;;5116872;28;20168;-79
2022/06/15 08:56:43;;;;;;;9.60;2.88;;;23.60;57.10;;;;;;5116456;28;20697;-79
2022/06/15 08:59:19;;;;;;;6.53;3.00;;;23.30;56.20;;;;;;5116001;28;20217;-79
2022/06/15 09:02:08;;;;;;;6.93;3.10;;;23.30;58.10;;;;;;5117214;28;20170;-79
2022/06/15 09:04:53;;;;;;;30.52;3.65;;;23.60;58.30;;;;;;5116128;28;20662;-80
2022/06/15 09:08:01;;;;;;;14.95;3.35;;;23.80;57.30;;;;;;5116657;28;20168;-79
2022/06/15 09:11:10;;;;;;;15.23;4.60;;;23.90;55.50;;;;;;5093403;28;20180;-79
2022/06/15 09:13:47;;;;;;;13.65;4.55;;;23.90;56.20;;;;;;5097336;28;20188;-79
2022/06/15 09:16:22;;;;;;;24.27;3.72;;;24.00;57.00;;;;;;5117637;28;20203;-79
2022/06/15 09:19:02;;;;;;;11.88;3.03;;;24.20;55.90;;;;;;5117064;28;20164;-79
2022/06/15 09:21:33;;;;;;;6.18;2.67;;;24.20;57.30;;;;;;5117435;28;20172;-79
2022/06/15 09:24:11;;;;;;;7.05;2.53;;;24.20;53.50;;;;;;5116725;28;20200;-79
2022/06/15 09:27:00;;;;;;;14.70;3.05;;;24.30;55.10;;;;;;5118734;28;20244;-79
2022/06/15 09:29:35;;;;;;;3.53;2.33;;;24.50;55.00;;;;;;5118851;28;20175;-79
2022/06/15 09:32:14;;;;;;;7.80;3.05;;;24.70;53.70;;;;;;5119128;28;20679;-79
2022/06/15 09:34:48;;;;;;;5.55;2.42;;;24.80;53.70;;;;;;5118007;28;20565;-80
2022/06/15 09:37:21;;;;;;;6.05;2.88;;;24.90;52.40;;;;;;5116690;28;20221;-79
2022/06/15 09:39:46;;;;;;;7.13;2.53;;;25.00;51.80;;;;;;5117503;28;20203;-79
2022/06/15 09:42:24;;;;;;;5.82;2.45;;;25.00;51.60;;;;;;5118441;28;20247;-79
2022/06/15 09:45:13;;;;;;;6.88;2.60;;;25.00;50.10;;;;;;5117585;28;20291;-80
2022/06/15 09:47:49;;;;;;;7.45;2.70;;;25.10;51.00;;;;;;5106795;28;20185;-80
2022/06/15 09:50:47;;;;;;;5.00;2.47;;;24.90;49.90;;;;;;5117726;28;20164;-79
2022/06/15 09:53:37;;;;;;;6.75;2.70;;;24.90;50.70;;;;;;5101670;28;20192;-79
2022/06/15 09:56:10;;;;;;;10.98;3.15;;;25.10;51.70;;;;;;5116829;28;20294;-79
2022/06/15 09:58:39;;;;;;;4.80;2.50;;;24.70;49.50;;;;;;5117954;28;20234;-79
2022/06/15 10:01:07;;;;;;;17.25;3.60;;;24.70;49.40;;;;;;5116731;28;20180;-79
2022/06/15 10:03:46;;;;;;;5.53;2.90;;;25.00;50.70;;;;;;5118458;28;20195;-79
2022/06/15 10:06:27;;;;;;;5.40;2.53;;;25.20;50.00;;;;;;5118529;28;20191;-80
2022/06/15 10:08:54;;;;;;;8.27;2.60;;;25.30;49.20;;;;;;5116878;28;20243;-80
2022/06/15 10:11:49;;;;;;;22.23;3.05;;;25.40;49.80;;;;;;5118281;28;20172;-80
2022/06/15 10:14:23;;;;;;;15.98;2.90;;;25.40;47.90;;;;;;5116846;28;20172;-80
2022/06/15 10:17:21;;;;;;;3.50;2.42;;;25.40;48.80;;;;;;5116926;28;20279;-80
2022/06/15 10:19:50;;;;;;;13.45;4.13;;;25.50;49.00;;;;;;5116641;28;20168;-80
2022/06/15 10:22:25;;;;;;;5.25;2.65;;;25.60;49.00;;;;;;5115963;28;20183;-80
2022/06/15 10:24:51;;;;;;;8.32;2.97;;;25.60;48.30;;;;;;5116010;28;20260;-80
2022/06/15 10:27:18;;;;;;;9.43;2.80;;;25.50;48.20;;;;;;5117614;27;20180;-80
2022/06/15 10:29:56;;;;;;;7.15;3.13;;;25.50;48.60;;;;;;5117372;28;20176;-79
2022/06/15 10:32:22;;;;;;;4.97;2.50;;;25.40;47.80;;;;;;5116499;28;20642;-79
2022/06/15 10:34:47;;;;;;;9.88;2.50;;;25.30;48.00;;;;;;5117730;28;20294;-80
2022/06/15 10:37:44;;;;;;;3.78;2.40;;;25.50;49.00;;;;;;5116628;28;20592;-80
2022/06/15 10:40:38;;;;;;;16.25;3.60;;;25.70;48.10;;;;;;5112541;28;20225;-80
2022/06/15 10:43:29;;;;;;;4.90;2.72;;;25.90;48.40;;;;;;5115005;28;20208;-80
2022/06/15 10:46:01;;;;;;;10.05;2.63;;;26.00;47.20;;;;;;5117140;28;20202;-80
2022/06/15 10:48:31;;;;;;;6.47;2.60;;;26.10;47.50;;;;;;5116733;28;20183;-80
2022/06/15 10:50:57;;;;;;;4.00;2.33;;;26.20;47.00;;;;;;5115623;28;20168;-79
2022/06/15 10:53:49;;;;;;;4.80;2.28;;;25.60;43.40;;;;;;5116673;28;20248;-79
2022/06/15 11:02:23;;;;;;;7.38;2.60;;;26.00;44.50;;;;;;5117660;28;20172;-80
2022/06/15 11:04:49;;;;;;;4.38;2.17;;;26.10;45.30;;;;;;5116936;28;20554;-80
2022/06/15 11:07:20;;;;;;;3.63;2.33;;;26.00;44.30;;;;;;5115206;28;20172;-79
2022/06/15 11:09:55;;;;;;;5.88;2.75;;;25.90;44.40;;;;;;5117396;28;20172;-79
2022/06/15 11:12:31;;;;;;;3.28;2.35;;;25.90;44.60;;;;;;5116068;28;20182;-79
2022/06/15 11:15:20;;;;;;;5.00;2.38;;;26.00;44.40;;;;;;5115467;28;20682;-80
2022/06/15 11:18:03;;;;;;;12.15;2.75;;;25.80;43.30;;;;;;5116869;28;20161;-80
2022/06/15 11:20:46;;;;;;;18.50;3.42;;;25.90;43.50;;;;;;5115728;28;20635;-79
2022/06/15 11:23:22;;;;;;;7.65;2.55;;;26.00;43.80;;;;;;5115631;28;20200;-79
2022/06/15 11:26:02;;;;;;;7.45;2.40;;;26.10;44.10;;;;;;5115342;28;20192;-80
2022/06/15 11:28:48;;;;;;;11.13;2.80;;;26.40;45.30;;;;;;5115016;28;20553;-80
2022/06/15 11:31:16;;;;;;;5.65;2.58;;;26.60;46.90;;;;;;5114493;28;20164;-80
2022/06/15 11:34:04;;;;;;;3.85;2.35;;;26.60;42.30;;;;;;5113111;28;20639;-80
2022/06/15 11:36:36;;;;;;;3.10;2.10;;;26.70;43.00;;;;;;5113639;28;20195;-80
2022/06/15 11:39:16;;;;;;;4.07;2.00;;;26.70;42.00;;;;;;5114106;28;20279;-79
2022/06/15 11:41:47;;;;;;;4.20;2.47;;;26.70;42.40;;;;;;5113346;28;20172;-79
2022/06/15 11:44:23;;;;;;;4.10;2.22;;;26.60;43.10;;;;;;5114038;28;20210;-79
2022/06/15 11:47:03;;;;;;;4.60;2.40;;;26.40;41.10;;;;;;5113464;28;20160;-80
2022/06/15 11:49:37;;;;;;;2.65;2.08;;;26.40;42.10;;;;;;5112964;28;20176;-80
2022/06/15 11:52:34;;;;;;;4.70;2.05;;;26.50;42.20;;;;;;5113184;28;20687;-80
2022/06/15 11:55:07;;;;;;;4.63;2.47;;;26.50;41.50;;;;;;5113506;28;20223;-80
2022/06/15 11:58:06;;;;;;;4.15;1.88;;;26.60;42.60;;;;;;5113965;28;20164;-80
2022/06/15 12:00:53;;;;;;;2.10;1.90;;;26.70;42.80;;;;;;5114562;28;20171;-80
2022/06/15 12:03:37;;;;;;;4.75;2.20;;;26.90;42.20;;;;;;5117326;28;20195;-80
2022/06/15 12:06:22;;;;;;;4.75;2.13;;;27.00;40.90;;;;;;5117458;28;20650;-80
2022/06/15 12:08:58;;;;;;;10.18;2.22;;;26.90;41.00;;;;;;5117989;28;20602;-80
2022/06/15 12:14:35;;;;;;;2.65;2.10;;;27.00;40.50;;;;;;5123679;28;20190;-80
2022/06/15 12:17:12;;;;;;;2.53;2.10;;;27.00;39.50;;;;;;5123570;28;20179;-80
2022/06/15 12:20:07;;;;;;;3.65;1.83;;;27.00;40.40;;;;;;5123722;28;20179;-80
2022/06/15 12:22:53;;;;;;;5.53;2.10;;;26.90;40.30;;;;;;5124205;28;20654;-80
2022/06/15 12:25:28;;;;;;;2.17;2.08;;;27.00;41.40;;;;;;5123334;28;20192;-80
2022/06/15 12:28:12;;;;;;;6.07;2.45;;;27.10;40.50;;;;;;5123330;28;20191;-80
2022/06/15 12:30:52;;;;;;;7.38;2.25;;;27.10;40.50;;;;;;5123480;28;20216;-80
2022/06/15 12:33:25;;;;;;;4.47;2.10;;;27.10;40.70;;;;;;5120229;28;20168;-80
2022/06/15 12:36:09;;;;;;;4.72;2.30;;;27.10;41.00;;;;;;5120301;28;20256;-80
2022/06/15 12:38:58;;;;;;;4.25;2.10;;;27.10;40.60;;;;;;5120012;28;20172;-80
2022/06/15 12:44:31;;;;;;;4.05;2.15;;;27.10;40.80;;;;;;5111699;28;20237;-80
2022/06/15 12:46:57;;;;;;;6.53;2.60;;;27.10;40.60;;;;;;5119689;28;20172;-80
2022/06/15 12:50:00;;;;;;;4.10;2.08;;;27.10;41.40;;;;;;5119680;28;20214;-80
2022/06/15 12:52:34;;;;;;;5.43;1.92;;;27.10;40.00;;;;;;5119337;28;20182;-80
2022/06/15 12:55:10;;;;;;;3.85;2.10;;;27.20;41.70;;;;;;5119205;28;20670;-80
2022/06/15 12:57:50;;;;;;;2.25;1.73;;;27.30;40.00;;;;;;5119402;28;20179;-80
2022/06/15 13:00:34;;;;;;;2.28;1.90;;;27.40;40.30;;;;;;5119475;28;20180;-80
2022/06/15 13:03:32;;;;;;;2.33;1.95;;;27.40;39.10;;;;;;5120139;28;20567;-80
2022/06/15 13:06:24;;;;;;;2.90;1.90;;;27.40;38.90;;;;;;5118920;28;20200;-80
2022/06/15 13:09:20;;;;;;;10.15;2.30;;;27.40;38.80;;;;;;5120004;28;20196;-80
2022/06/15 13:12:07;;;;;;;2.72;1.70;;;27.40;40.00;;;;;;5119347;28;20251;-80
2022/06/15 13:14:53;;;;;;;2.50;1.70;;;27.40;38.00;;;;;;5119236;28;20172;-80
2022/06/15 13:17:23;;;;;;;2.50;1.80;;;27.30;37.20;;;;;;5118933;28;20267;-80
2022/06/15 13:20:02;;;;;;;3.05;1.90;;;27.20;37.30;;;;;;5120449;28;20255;-80
2022/06/15 13:22:32;;;;;;;4.93;2.22;;;27.20;38.50;;;;;;5119194;28;20211;-80
2022/06/15 13:25:11;;;;;;;2.67;1.80;;;27.30;39.30;;;;;;5118858;28;20242;-80
2022/06/15 13:27:40;;;;;;;4.28;1.90;;;27.40;38.80;;;;;;5119335;28;20160;-80
2022/06/15 13:30:31;;;;;;;3.10;1.92;;;27.40;38.30;;;;;;5118926;28;20180;-80
2022/06/15 13:33:01;;;;;;;5.43;2.00;;;27.40;38.60;;;;;;5113624;28;20203;-80
2022/06/15 13:35:40;;;;;;;1.80;1.70;;;27.50;39.40;;;;;;5118749;28;20196;-80